Time;durP1;ratioP1;P1;durP2;ratioP2;P2;SDS_P1;SDS_P2;PMS_P1;PMS_P2;Temp;Humidity;BMP_temperature;BMP_pressure;BME280_temperature;BME280_humidity;BME280_pressure;Samples;Min_cycle;Max_cycle;Signal;HPM_P1;HPM_P2
2021/12/21 00:00:51;;;;;;;22.63;10.50;;;;;;;;;;5081610;28;20047;-85
2021/12/21 00:03:17;;;;;;;22.17;9.75;;;;;;;;;;5081573;28;20468;-85
2021/12/21 00:05:43;;;;;;;24.27;11.35;;;;;;;;;;5098533;28;20450;-85
2021/12/21 00:08:12;;;;;;;19.55;10.70;;;;;;;;;;5097900;28;20051;-85
2021/12/21 00:10:46;;;;;;;21.08;10.65;;;-2.40;99.90;;;;;;5098603;28;20063;-85
2021/12/21 00:16:08;;;;;;;26.80;11.27;;;;;;;;;;5079680;28;20052;-85
2021/12/21 00:18:41;;;;;;;26.05;11.93;;;;;;;;;;5095118;28;20055;-85
2021/12/21 00:21:29;;;;;;;29.25;12.23;;;;;;;;;;5078635;28;20103;-85
2021/12/21 00:24:00;;;;;;;29.80;12.63;;;;;;;;;;5096743;28;20071;-85
2021/12/21 00:26:26;;;;;;;29.73;11.57;;;;;;;;;;5081898;28;20044;-85
2021/12/21 00:28:58;;;;;;;27.83;13.18;;;;;;;;;;5091219;28;20051;-85
2021/12/21 00:31:30;;;;;;;25.33;13.75;;;-2.40;99.90;;;;;;5112010;28;20044;-85
2021/12/21 00:33:56;;;;;;;22.25;11.48;;;;;;;;;;5096215;28;20056;-85
2021/12/21 00:36:24;;;;;;;26.15;13.13;;;-2.50;99.90;;;;;;5098430;28;20069;-85
2021/12/21 00:38:52;;;;;;;26.15;12.82;;;-2.50;99.90;;;;;;5097475;28;20082;-85
2021/12/21 00:41:19;;;;;;;27.45;13.70;;;-2.60;99.90;;;;;;5078119;28;20056;-85
2021/12/21 00:43:46;;;;;;;29.88;14.68;;;-2.50;99.90;;;;;;5077374;28;20180;-85
2021/12/21 00:46:12;;;;;;;38.55;17.15;;;;;;;;;;5076729;28;20044;-85
2021/12/21 00:48:47;;;;;;;33.00;17.05;;;-2.50;99.90;;;;;;5076682;28;20044;-86
2021/12/21 00:51:13;;;;;;;32.97;16.63;;;;;;;;;;5077295;28;20040;-85
2021/12/21 00:53:40;;;;;;;28.55;15.55;;;;;;;;;;5076681;28;20044;-85
2021/12/21 00:56:06;;;;;;;34.55;16.10;;;;;;;;;;5111081;28;20181;-85
2021/12/21 00:58:32;;;;;;;38.45;15.75;;;;;;;;;;5077060;28;20397;-85
2021/12/21 01:01:03;;;;;;;33.63;15.18;;;;;;;;;;5076389;28;20125;-85
2021/12/21 01:03:29;;;;;;;30.55;14.85;;;;;;;;;;5076602;28;20090;-85
2021/12/21 01:06:05;;;;;;;34.47;15.98;;;;;;;;;;5076895;28;20044;-85
2021/12/21 01:08:42;;;;;;;31.58;17.38;;;;;;;;;;5077172;28;20490;-85
2021/12/21 01:11:15;;;;;;;32.85;16.08;;;;;;;;;;5093894;28;20154;-84
2021/12/21 01:13:52;;;;;;;37.03;16.92;;;;;;;;;;5076326;28;20066;-85
2021/12/21 01:19:07;;;;;;;27.95;15.55;;;;;;;;;;5095210;28;20055;-85
2021/12/21 01:21:40;;;;;;;29.75;14.85;;;;;;;;;;5077437;28;20083;-85
2021/12/21 01:27:05;;;;;;;27.08;14.57;;;;;;;;;;5092001;28;20080;-85
2021/12/21 01:29:48;;;;;;;31.50;14.15;;;;;;;;;;5093674;28;20066;-85
2021/12/21 01:32:27;;;;;;;30.13;14.98;;;;;;;;;;5075944;28;20055;-85
2021/12/21 01:35:02;;;;;;;35.33;16.63;;;;;;;;;;5095243;28;20130;-85
2021/12/21 01:40:20;;;;;;;33.78;16.42;;;-2.80;99.90;;;;;;5092769;28;20054;-85
2021/12/21 01:43:25;;;;;;;30.30;15.45;;;;;;;;;;5094114;28;20044;-85
2021/12/21 01:51:10;;;;;;;30.85;18.05;;;;;;;;;;5092888;28;20051;-85
2021/12/21 01:53:37;;;;;;;36.40;17.75;;;-2.90;99.90;;;;;;5076372;28;20089;-85
2021/12/21 01:56:05;;;;;;;33.15;17.13;;;-2.80;99.90;;;;;;5076023;28;20040;-86
2021/12/21 01:58:33;;;;;;;31.58;15.82;;;;;;;;;;5093456;28;20059;-85
2021/12/21 02:01:07;;;;;;;29.10;15.05;;;-2.80;99.90;;;;;;5076846;28;20052;-85
2021/12/21 02:03:33;;;;;;;31.50;16.05;;;;;;;;;;5093148;28;20074;-86
2021/12/21 02:05:59;;;;;;;31.23;15.25;;;;;;;;;;5075785;28;20036;-85
2021/12/21 02:08:25;;;;;;;32.20;16.30;;;;;;;;;;5092604;28;20076;-85
2021/12/21 02:10:51;;;;;;;32.55;16.77;;;;;;;;;;5092794;28;20052;-85
2021/12/21 02:13:17;;;;;;;29.15;16.27;;;;;;;;;;5075981;28;20044;-85
2021/12/21 02:15:43;;;;;;;31.20;16.10;;;;;;;;;;5076118;28;20040;-85
2021/12/21 02:18:48;;;;;;;26.30;14.82;;;;;;;;;;5075798;28;20044;-85
2021/12/21 02:21:17;;;;;;;25.90;14.70;;;;;;;;;;5089168;28;20044;-85
2021/12/21 02:23:44;;;;;;;25.85;15.07;;;;;;;;;;5092852;28;20100;-85
2021/12/21 02:26:23;;;;;;;33.70;15.60;;;;;;;;;;5092684;28;20486;-85
2021/12/21 02:31:35;;;;;;;31.33;15.63;;;-3.10;99.90;;;;;;5092819;28;20040;-86
2021/12/21 02:34:01;;;;;;;27.25;14.68;;;;;;;;;;5075334;28;20314;-85
2021/12/21 02:36:27;;;;;;;31.92;15.68;;;;;;;;;;5075041;28;20394;-86
2021/12/21 02:38:53;;;;;;;28.65;15.25;;;;;;;;;;5075481;28;20051;-85
2021/12/21 02:41:19;;;;;;;25.20;15.35;;;;;;;;;;5075871;28;20036;-85
2021/12/21 02:43:46;;;;;;;29.40;15.77;;;;;;;;;;5076088;28;20410;-85
2021/12/21 02:46:12;;;;;;;34.80;16.60;;;;;;;;;;5075429;28;20036;-85
2021/12/21 02:48:38;;;;;;;30.25;15.93;;;;;;;;;;5075724;28;20507;-85
2021/12/21 02:51:04;;;;;;;32.05;16.15;;;;;;;;;;5093097;28;20492;-85
2021/12/21 02:53:30;;;;;;;27.10;16.15;;;;;;;;;;5095815;28;20193;-85
2021/12/21 02:55:57;;;;;;;26.95;15.23;;;;;;;;;;5080506;28;20050;-85
2021/12/21 02:58:23;;;;;;;31.67;16.00;;;;;;;;;;5096845;28;20489;-86
2021/12/21 03:00:52;;;;;;;28.52;16.00;;;;;;;;;;5081181;28;20127;-84
2021/12/21 03:03:18;;;;;;;32.80;18.58;;;;;;;;;;5097686;28;20048;-85
2021/12/21 03:05:49;;;;;;;34.97;18.58;;;;;;;;;;5098931;28;20070;-84
2021/12/21 03:08:24;;;;;;;33.60;17.65;;;;;;;;;;5099171;28;20409;-85
2021/12/21 03:11:06;;;;;;;34.85;17.10;;;;;;;;;;5100519;28;20100;-85
2021/12/21 03:14:03;;;;;;;31.95;17.58;;;-3.20;99.90;;;;;;5098326;28;20432;-85
2021/12/21 03:16:31;;;;;;;35.88;16.85;;;-3.20;99.90;;;;;;5079398;28;20044;-86
2021/12/21 03:18:59;;;;;;;36.95;16.65;;;;;;;;;;5078561;28;20394;-85
2021/12/21 03:21:25;;;;;;;31.70;17.00;;;;;;;;;;5079496;28;20040;-85
2021/12/21 03:23:51;;;;;;;31.60;16.23;;;;;;;;;;5082073;28;20546;-85
2021/12/21 03:26:17;;;;;;;27.58;15.55;;;;;;;;;;5085554;28;20044;-85
2021/12/21 03:28:43;;;;;;;30.92;16.98;;;;;;;;;;5108724;28;20059;-85
2021/12/21 03:31:13;;;;;;;27.55;15.63;;;;;;;;;;5098862;28;20044;-86
2021/12/21 03:33:39;;;;;;;28.40;16.00;;;;;;;;;;5116928;28;20122;-85
2021/12/21 03:36:05;;;;;;;30.02;15.52;;;;;;;;;;5099105;28;20095;-85
2021/12/21 03:38:32;;;;;;;28.75;16.10;;;;;;;;;;5098471;28;20097;-85
2021/12/21 03:41:04;;;;;;;29.08;15.85;;;;;;;;;;5097485;28;20467;-85
2021/12/21 03:43:30;;;;;;;28.73;17.48;;;-3.30;99.90;;;;;;5096453;28;20060;-85
2021/12/21 03:46:06;;;;;;;26.67;15.63;;;;;;;;;;5094489;28;20032;-85
2021/12/21 03:48:33;;;;;;;34.00;15.45;;;;;;;;;;5093539;28;20040;-85
2021/12/21 03:50:59;;;;;;;27.95;15.43;;;;;;;;;;5093823;28;20052;-85
2021/12/21 03:53:25;;;;;;;30.05;16.13;;;;;;;;;;5086517;28;20047;-84
2021/12/21 03:56:03;;;;;;;27.33;14.82;;;;;;;;;;5079911;28;20085;-84
2021/12/21 03:58:29;;;;;;;26.67;15.15;;;;;;;;;;5079992;28;20048;-85
2021/12/21 04:00:55;;;;;;;31.00;15.80;;;;;;;;;;5079454;28;20097;-85
2021/12/21 04:03:22;;;;;;;33.28;17.25;;;;;;;;;;5080419;28;20044;-84
2021/12/21 04:05:48;;;;;;;34.28;18.92;;;;;;;;;;5098098;28;20127;-85
2021/12/21 04:08:14;;;;;;;34.05;18.27;;;;;;;;;;5078675;28;20044;-85
2021/12/21 04:10:40;;;;;;;28.15;17.13;;;;;;;;;;5079683;28;20048;-84
2021/12/21 04:13:09;;;;;;;32.25;16.45;;;;;;;;;;5077954;28;20052;-85
2021/12/21 04:15:42;;;;;;;27.92;15.57;;;;;;;;;;5107389;28;20048;-85
2021/12/21 04:18:09;;;;;;;29.05;16.10;;;;;;;;;;5107589;28;20048;-85
2021/12/21 04:20:35;;;;;;;27.58;15.98;;;;;;;;;;5101635;28;20110;-85
2021/12/21 04:23:01;;;;;;;30.75;16.42;;;;;;;;;;5080307;28;20083;-85
2021/12/21 04:25:27;;;;;;;32.97;16.58;;;;;;;;;;5080058;28;20044;-85
2021/12/21 04:27:54;;;;;;;26.35;15.85;;;;;;;;;;5096918;28;20123;-85
2021/12/21 04:30:20;;;;;;;33.88;16.35;;;;;;;;;;5079819;28;20048;-84
2021/12/21 04:32:46;;;;;;;37.40;18.80;;;;;;;;;;5078070;28;20113;-85
2021/12/21 04:35:18;;;;;;;34.45;19.17;;;;;;;;;;5077822;28;20047;-85
2021/12/21 04:37:47;;;;;;;32.88;16.23;;;;;;;;;;5077672;28;20051;-85
2021/12/21 04:40:17;;;;;;;31.50;15.95;;;;;;;;;;5093584;28;20059;-85
2021/12/21 04:42:43;;;;;;;29.08;16.38;;;;;;;;;;5095164;28;20156;-85
2021/12/21 04:45:10;;;;;;;27.10;15.95;;;;;;;;;;5094401;28;20075;-85
2021/12/21 04:47:36;;;;;;;29.20;16.05;;;;;;;;;;5077572;28;20039;-85
2021/12/21 04:50:02;;;;;;;28.75;15.75;;;;;;;;;;5095291;28;20135;-85
2021/12/21 04:52:28;;;;;;;29.02;14.63;;;;;;;;;;5095424;28;20784;-85
2021/12/21 04:54:57;;;;;;;25.02;14.70;;;;;;;;;;5095409;28;20128;-85
2021/12/21 04:57:23;;;;;;;25.38;14.02;;;;;;;;;;5095021;28;20052;-84
2021/12/21 04:59:49;;;;;;;30.30;15.60;;;;;;;;;;5077617;28;20497;-84
2021/12/21 05:02:16;;;;;;;26.15;15.20;;;;;;;;;;5078268;28;20044;-84
2021/12/21 05:04:42;;;;;;;28.60;15.75;;;;;;;;;;5078565;28;20052;-85
2021/12/21 05:07:08;;;;;;;23.67;15.02;;;;;;;;;;5094071;28;20074;-84
2021/12/21 05:09:40;;;;;;;31.15;15.93;;;;;;;;;;5077420;28;20856;-85
2021/12/21 05:12:09;;;;;;;29.23;14.60;;;-3.90;99.90;;;;;;5094385;28;20047;-85
2021/12/21 05:14:36;;;;;;;29.50;15.25;;;;;;;;;;5094038;28;20558;-84
2021/12/21 05:17:02;;;;;;;30.85;15.05;;;;;;;;;;5094341;28;20441;-85
2021/12/21 05:19:28;;;;;;;27.85;14.93;;;;;;;;;;5078080;28;20094;-85
2021/12/21 05:21:54;;;;;;;27.15;14.63;;;;;;;;;;5077379;28;20048;-85
2021/12/21 05:24:20;;;;;;;27.70;15.40;;;;;;;;;;5093986;28;20070;-85
2021/12/21 05:26:46;;;;;;;29.42;15.68;;;;;;;;;;5095010;28;20139;-84
2021/12/21 05:29:12;;;;;;;33.70;17.50;;;;;;;;;;5077348;28;20109;-85
2021/12/21 05:31:39;;;;;;;31.65;17.02;;;;;;;;;;5094128;28;20104;-83
2021/12/21 05:34:05;;;;;;;29.75;18.27;;;;;;;;;;5077318;28;20101;-83
2021/12/21 05:36:31;;;;;;;32.28;17.13;;;;;;;;;;5078002;28;20058;-84
2021/12/21 05:39:02;;;;;;;29.08;16.20;;;;;;;;;;5077067;28;20055;-84
2021/12/21 05:41:40;;;;;;;30.30;17.92;;;;;;;;;;5093855;28;20056;-83
2021/12/21 05:44:07;;;;;;;34.63;17.00;;;;;;;;;;5076608;28;20046;-83
2021/12/21 05:46:33;;;;;;;29.70;16.02;;;;;;;;;;5093393;28;20047;-84
2021/12/21 05:48:59;;;;;;;29.27;16.73;;;;;;;;;;5093868;28;20505;-83
2021/12/21 05:51:25;;;;;;;30.58;17.13;;;;;;;;;;5076476;28;20071;-84
2021/12/21 05:53:51;;;;;;;38.72;18.45;;;;;;;;;;5093843;28;20501;-83
2021/12/21 05:56:17;;;;;;;32.20;17.73;;;;;;;;;;5076397;28;20487;-84
2021/12/21 05:58:43;;;;;;;30.17;18.17;;;;;;;;;;5095323;28;20048;-83
2021/12/21 06:01:09;;;;;;;32.83;18.77;;;;;;;;;;5096584;28;20113;-83
2021/12/21 06:03:36;;;;;;;31.45;17.77;;;;;;;;;;5079823;28;20058;-84
2021/12/21 06:06:02;;;;;;;31.35;18.23;;;;;;;;;;5080035;28;20118;-84
2021/12/21 06:08:28;;;;;;;31.30;17.50;;;;;;;;;;5079971;28;20043;-84
2021/12/21 06:10:56;;;;;;;29.23;16.77;;;;;;;;;;5079767;28;20527;-83
2021/12/21 06:13:45;;;;;;;29.02;17.52;;;;;;;;;;5079403;28;20056;-83
2021/12/21 06:26:41;;;;;;;31.27;16.08;;;;;;;;;;5097765;28;20079;-84
2021/12/21 06:29:07;;;;;;;32.67;16.88;;;;;;;;;;5097797;28;20082;-84
2021/12/21 06:31:33;;;;;;;35.65;16.67;;;;;;;;;;5083357;28;20107;-83
2021/12/21 06:34:00;;;;;;;32.97;16.10;;;;;;;;;;5066098;28;20823;-84
2021/12/21 06:36:26;;;;;;;35.05;18.15;;;;;;;;;;5082582;28;20059;-84
2021/12/21 06:38:53;;;;;;;35.58;17.85;;;;;;;;;;5101438;28;20060;-83
2021/12/21 06:41:20;;;;;;;31.20;16.90;;;;;;;;;;5096479;28;20079;-84
2021/12/21 06:43:46;;;;;;;34.25;17.60;;;;;;;;;;5080952;28;20047;-83
2021/12/21 06:46:19;;;;;;;32.28;16.90;;;;;;;;;;5080861;28;20058;-83
2021/12/21 06:51:40;;;;;;;29.42;16.83;;;;;;;;;;5099238;28;20056;-84
2021/12/21 06:54:06;;;;;;;36.88;18.52;;;;;;;;;;5081101;28;20050;-84
2021/12/21 06:56:32;;;;;;;34.58;17.35;;;;;;;;;;5080963;28;20773;-84
2021/12/21 06:58:58;;;;;;;33.92;19.27;;;;;;;;;;5098851;28;20055;-83
2021/12/21 07:01:28;;;;;;;34.47;19.58;;;-3.90;99.90;;;;;;5099047;28;20043;-84
2021/12/21 07:03:55;;;;;;;37.17;19.52;;;-3.90;99.90;;;;;;5118307;28;20084;-83
2021/12/21 07:06:23;;;;;;;39.10;21.55;;;;;;;;;;5082590;28;20070;-83
2021/12/21 07:09:00;;;;;;;46.58;21.20;;;;;;;;;;5081876;28;20044;-84
2021/12/21 07:11:37;;;;;;;40.35;20.85;;;;;;;;;;5081704;28;20097;-84
2021/12/21 07:19:33;;;;;;;40.80;22.85;;;;;;;;;;5118030;28;20052;-84
2021/12/21 07:22:00;;;;;;;42.22;22.77;;;;;;;;;;5083246;28;20118;-84
2021/12/21 07:24:26;;;;;;;40.42;22.58;;;-4.20;99.90;;;;;;5093066;28;20059;-84
2021/12/21 07:26:52;;;;;;;39.60;22.27;;;;;;;;;;5124797;28;20051;-84
2021/12/21 07:29:18;;;;;;;41.28;21.83;;;;;;;;;;5106262;28;20058;-84
2021/12/21 07:31:45;;;;;;;48.97;24.35;;;;;;;;;;5086629;27;20050;-85
2021/12/21 07:34:11;;;;;;;46.25;24.35;;;;;;;;;;5105236;28;20097;-85
2021/12/21 07:36:37;;;;;;;46.03;25.25;;;;;;;;;;5119707;28;20040;-84
2021/12/21 07:39:06;;;;;;;47.58;24.17;;;-4.00;99.90;;;;;;5097906;28;20506;-84
2021/12/21 07:41:32;;;;;;;46.53;25.00;;;;;;;;;;5077916;28;20535;-84
2021/12/21 07:43:58;;;;;;;46.83;23.85;;;;;;;;;;5109815;27;20046;-84
2021/12/21 07:46:24;;;;;;;49.13;26.48;;;;;;;;;;5123978;27;20499;-84
2021/12/21 07:48:50;;;;;;;47.13;24.75;;;;;;;;;;5123676;28;20036;-84
2021/12/21 07:51:17;;;;;;;51.22;25.27;;;;;;;;;;5087718;28;20050;-85
2021/12/21 07:53:43;;;;;;;46.88;25.02;;;;;;;;;;5090479;28;20044;-85
2021/12/21 07:56:09;;;;;;;46.85;24.38;;;;;;;;;;5091593;28;20071;-84
2021/12/21 07:58:39;;;;;;;49.88;23.98;;;;;;;;;;5127627;28;20084;-84
2021/12/21 08:01:08;;;;;;;42.90;24.33;;;;;;;;;;5126153;28;20062;-84
2021/12/21 08:03:34;;;;;;;48.08;24.90;;;;;;;;;;5089076;28;20097;-84
2021/12/21 08:06:06;;;;;;;48.53;25.00;;;-3.70;99.90;;;;;;5104726;28;20031;-84
2021/12/21 08:08:34;;;;;;;45.42;24.83;;;;;;;;;;5092527;28;20055;-84
2021/12/21 08:11:28;;;;;;;49.33;25.58;;;-3.80;99.90;;;;;;5109073;28;20043;-85
2021/12/21 08:13:56;;;;;;;47.13;24.80;;;;;;;;;;5093480;28;20069;-85
2021/12/21 08:16:22;;;;;;;46.63;25.00;;;;;;;;;;5107028;28;20083;-84
2021/12/21 08:18:48;;;;;;;41.17;23.88;;;;;;;;;;5090671;28;20387;-86
2021/12/21 08:21:17;;;;;;;43.45;22.40;;;;;;;;;;5090802;28;20088;-86
2021/12/21 08:23:43;;;;;;;47.13;22.75;;;;;;;;;;5099809;28;20059;-85
2021/12/21 08:26:09;;;;;;;40.83;21.90;;;;;;;;;;5094226;28;20051;-85
2021/12/21 08:28:35;;;;;;;36.97;21.75;;;;;;;;;;5091993;28;20043;-86
2021/12/21 08:31:02;;;;;;;44.28;20.73;;;;;;;;;;5095465;28;20051;-86
2021/12/21 08:33:28;;;;;;;42.65;23.58;;;;;;;;;;5096191;28;20043;-86
2021/12/21 08:35:54;;;;;;;46.78;24.05;;;;;;;;;;5094732;28;20058;-86
2021/12/21 08:38:21;;;;;;;48.83;24.80;;;;;;;;;;5096554;28;20083;-86
2021/12/21 08:40:49;;;;;;;47.88;23.33;;;-3.20;99.90;;;;;;5096101;28;20043;-85
2021/12/21 08:43:26;;;;;;;60.45;25.52;;;-3.20;99.90;;;;;;5094525;28;20709;-85
2021/12/21 08:45:53;;;;;;;65.10;28.15;;;;;;;;;;5087967;28;20043;-87
2021/12/21 08:48:20;;;;;;;52.22;26.35;;;;;;;;;;5093474;28;20039;-86
2021/12/21 08:50:47;;;;;;;66.97;30.48;;;;;;;;;;5096433;28;20121;-85
2021/12/21 08:53:16;;;;;;;60.38;30.45;;;;;;;;;;5112446;28;20043;-86
2021/12/21 08:55:42;;;;;;;57.78;29.35;;;;;;;;;;5109026;28;20063;-85
2021/12/21 08:58:09;;;;;;;65.13;29.67;;;-2.80;99.90;;;;;;5094033;28;20048;-86
2021/12/21 09:00:36;;;;;;;67.90;29.55;;;;;;;;;;5095086;28;20074;-86
2021/12/21 09:03:02;;;;;;;61.50;28.80;;;;;;;;;;5110724;28;20048;-85
2021/12/21 09:05:30;;;;;;;71.60;29.33;;;;;;;;;;5093623;28;20047;-86
2021/12/21 09:07:57;;;;;;;61.97;30.52;;;;;;;;;;5096529;28;20043;-86
2021/12/21 09:10:26;;;;;;;63.53;31.27;;;;;;;;;;5113880;27;20039;-86
2021/12/21 09:12:53;;;;;;;64.07;32.22;;;;;;;;;;5115218;27;20051;-86
2021/12/21 09:15:21;;;;;;;62.15;30.15;;;-2.40;99.90;;;;;;5099255;28;20039;-86
2021/12/21 09:17:47;;;;;;;71.32;33.80;;;-2.30;99.90;;;;;;5095391;28;20058;-86
2021/12/21 09:20:16;;;;;;;150.35;39.63;;;-2.20;99.90;;;;;;5093907;28;20054;-86
2021/12/21 09:22:43;;;;;;;87.75;37.72;;;-2.10;99.90;;;;;;5093527;28;20089;-85
2021/12/21 09:25:10;;;;;;;66.43;34.47;;;-1.90;99.90;;;;;;5094914;28;20042;-87
2021/12/21 09:27:37;;;;;;;65.30;35.95;;;-2.00;99.90;;;;;;5096598;28;20093;-86
2021/12/21 09:30:06;;;;;;;61.90;33.65;;;-1.90;99.90;;;;;;5098097;27;20047;-85
2021/12/21 09:32:32;;;;;;;65.57;36.25;;;;;;;;;;5087442;28;20063;-86
2021/12/21 09:34:58;;;;;;;69.55;37.45;;;;;;;;;;5105619;27;20066;-86
2021/12/21 09:37:25;;;;;;;63.35;36.13;;;;;;;;;;5103992;27;20097;-87
2021/12/21 09:39:54;;;;;;;67.95;36.72;;;-1.90;99.90;;;;;;5124494;27;20050;-87
2021/12/21 09:42:22;;;;;;;66.82;36.53;;;-1.80;99.90;;;;;;5123111;27;20043;-87
2021/12/21 09:44:52;;;;;;;83.25;43.70;;;;;;;;;;5097435;28;20039;-86
2021/12/21 09:47:18;;;;;;;68.35;39.47;;;-1.20;99.90;;;;;;5087059;28;20048;-87
2021/12/21 09:49:46;;;;;;;100.53;51.72;;;-0.20;99.90;;;;;;5089090;28;20122;-86
2021/12/21 09:52:16;;;;;;;97.70;52.60;;;0.80;99.90;;;;;;5085585;28;20081;-86
2021/12/21 09:54:43;;;;;;;83.30;48.40;;;;;;;;;;5081722;28;20047;-86
2021/12/21 09:57:09;;;;;;;88.30;48.47;;;;;;;;;;5081768;28;20051;-86
2021/12/21 09:59:35;;;;;;;73.53;42.72;;;;;;;;;;5079591;28;20508;-86
2021/12/21 10:02:02;;;;;;;75.00;45.50;;;;;;;;;;5079586;28;20051;-87
2021/12/21 10:04:29;;;;;;;57.92;36.13;;;1.40;99.90;;;;;;5079708;28;20087;-86
2021/12/21 10:06:57;;;;;;;67.60;34.58;;;1.10;99.90;;;;;;5079686;28;20451;-85
2021/12/21 10:09:32;;;;;;;63.20;37.53;;;1.20;99.90;;;;;;5092420;27;20039;-86
2021/12/21 10:12:01;;;;;;;49.65;30.88;;;1.00;99.90;;;;;;5100847;27;20047;-86
2021/12/21 10:14:27;;;;;;;56.53;29.98;;;;;;;;;;5095283;28;20114;-86
2021/12/21 10:17:23;;;;;;;50.28;31.65;;;0.80;99.90;;;;;;5078777;28;20570;-85
2021/12/21 10:19:49;;;;;;;55.97;32.10;;;;;;;;;;5076908;28;20054;-86
2021/12/21 10:22:17;;;;;;;61.42;30.90;;;0.80;99.90;;;;;;5080155;28;20047;-85
2021/12/21 10:24:49;;;;;;;55.00;32.33;;;0.70;99.90;;;;;;5079309;28;20053;-85
2021/12/21 10:27:18;;;;;;;50.40;30.83;;;0.70;99.90;;;;;;5080004;28;20419;-86
2021/12/21 10:29:48;;;;;;;62.30;31.20;;;0.60;99.90;;;;;;5079663;28;20043;-85
2021/12/21 10:32:24;;;;;;;51.88;32.30;;;0.70;99.90;;;;;;5079553;28;20409;-85
2021/12/21 10:35:05;;;;;;;66.35;36.13;;;0.70;99.90;;;;;;5079878;28;20452;-85
2021/12/21 10:37:34;;;;;;;57.88;35.40;;;0.70;99.90;;;;;;5096698;28;20043;-85
2021/12/21 10:40:21;;;;;;;61.97;36.40;;;0.90;99.90;;;;;;5079389;28;20522;-85
2021/12/21 10:42:53;;;;;;;60.65;36.08;;;1.00;99.90;;;;;;5097109;28;20039;-85
2021/12/21 10:45:47;;;;;;;57.58;35.97;;;1.00;99.90;;;;;;5093588;27;20077;-85
2021/12/21 10:48:15;;;;;;;58.20;34.35;;;0.90;99.90;;;;;;5116490;28;20062;-85
2021/12/21 10:50:53;;;;;;;51.83;35.15;;;0.80;99.90;;;;;;5135559;27;20496;-85
2021/12/21 10:53:23;;;;;;;54.83;36.97;;;1.20;99.90;;;;;;5100929;28;20039;-85
2021/12/21 10:56:06;;;;;;;55.53;34.92;;;1.10;99.90;;;;;;5116995;27;20130;-85
2021/12/21 10:58:45;;;;;;;58.20;34.00;;;1.10;99.90;;;;;;5100849;27;20042;-85
2021/12/21 11:01:21;;;;;;;59.65;34.15;;;1.20;99.90;;;;;;5099906;28;20055;-85
2021/12/21 11:03:51;;;;;;;65.65;35.03;;;1.30;99.90;;;;;;5100083;28;20082;-85
2021/12/21 11:06:24;;;;;;;52.58;33.38;;;1.20;99.90;;;;;;5100614;28;20047;-85
2021/12/21 11:08:55;;;;;;;59.35;34.33;;;1.20;99.90;;;;;;5098994;28;20047;-85
2021/12/21 11:11:32;;;;;;;55.03;34.60;;;1.40;99.90;;;;;;5116492;28;20478;-86
2021/12/21 11:14:09;;;;;;;55.67;33.78;;;1.40;99.90;;;;;;5098426;28;20044;-85
2021/12/21 11:16:42;;;;;;;57.05;34.55;;;1.60;99.90;;;;;;5099484;28;20051;-84
2021/12/21 11:19:11;;;;;;;55.13;32.78;;;1.40;99.90;;;;;;5085479;28;20515;-85
2021/12/21 11:21:46;;;;;;;53.65;32.13;;;1.60;99.90;;;;;;5108139;28;20055;-85
2021/12/21 11:24:19;;;;;;;51.75;29.85;;;1.50;99.90;;;;;;5119308;28;20047;-84
2021/12/21 11:26:47;;;;;;;50.05;30.90;;;1.60;99.90;;;;;;5100587;28;20389;-84
2021/12/21 11:29:16;;;;;;;48.20;32.00;;;1.70;99.90;;;;;;5100055;28;20043;-84
2021/12/21 11:31:45;;;;;;;49.42;31.77;;;1.70;99.90;;;;;;5099771;28;20051;-85
2021/12/21 11:34:16;;;;;;;54.83;32.20;;;1.80;99.90;;;;;;5100069;28;20043;-84
2021/12/21 11:39:38;;;;;;;48.33;29.85;;;;;;;;;;5115406;28;20083;-85
2021/12/21 11:42:08;;;;;;;42.58;28.60;;;1.90;99.90;;;;;;5116662;28;20055;-84
2021/12/21 11:44:58;;;;;;;54.63;30.70;;;1.90;99.90;;;;;;5117874;28;20035;-84
2021/12/21 11:47:34;;;;;;;54.88;30.05;;;2.00;99.90;;;;;;5117165;28;20039;-85
2021/12/21 11:50:04;;;;;;;48.73;28.97;;;1.90;99.90;;;;;;5101268;28;20047;-84
2021/12/21 11:52:46;;;;;;;44.65;30.27;;;2.10;99.90;;;;;;5102580;28;20285;-84
2021/12/21 11:55:12;;;;;;;52.60;31.58;;;;;;;;;;5102414;28;20047;-84
2021/12/21 11:57:45;;;;;;;47.67;30.77;;;2.20;99.90;;;;;;5118824;28;20122;-85
2021/12/21 12:00:14;;;;;;;44.40;28.15;;;;;;;;;;5117603;28;20051;-85
2021/12/21 12:02:42;;;;;;;41.05;29.25;;;2.40;99.90;;;;;;5101091;28;20648;-85
2021/12/21 12:05:20;;;;;;;41.47;28.65;;;;;;;;;;5119842;28;20511;-85
2021/12/21 12:08:06;;;;;;;40.35;26.13;;;2.50;99.90;;;;;;5102676;28;20057;-85
2021/12/21 12:10:34;;;;;;;39.78;26.60;;;2.60;99.90;;;;;;5104389;27;20043;-85
2021/12/21 12:13:28;;;;;;;40.75;26.17;;;2.20;99.90;;;;;;5105968;27;20047;-85
2021/12/21 12:16:01;;;;;;;41.58;26.73;;;2.80;99.90;;;;;;5105336;27;20740;-85
2021/12/21 12:18:41;;;;;;;38.67;21.08;;;2.80;99.90;;;;;;5105326;27;20491;-85
2021/12/21 12:21:30;;;;;;;32.95;19.80;;;2.90;99.90;;;;;;5104206;27;20047;-84
2021/12/21 12:24:00;;;;;;;36.83;20.83;;;2.90;99.90;;;;;;5122041;27;20126;-85
2021/12/21 12:26:26;;;;;;;41.45;22.33;;;;;;;;;;5105630;27;20050;-85
2021/12/21 12:28:55;;;;;;;37.17;21.23;;;3.00;99.90;;;;;;5123722;27;20504;-84
2021/12/21 12:31:33;;;;;;;41.28;22.17;;;3.00;99.90;;;;;;5143862;27;20135;-85
2021/12/21 12:34:02;;;;;;;40.72;23.15;;;;;;;;;;5111709;27;20043;-84
2021/12/21 12:36:52;;;;;;;37.08;23.38;;;3.20;99.90;;;;;;5110811;27;20054;-85
2021/12/21 12:39:27;;;;;;;42.47;23.92;;;3.40;99.90;;;;;;5108267;27;20077;-84
2021/12/21 12:41:53;;;;;;;40.55;24.25;;;;;;;;;;5110564;27;20039;-85
2021/12/21 12:44:27;;;;;;;38.50;24.90;;;3.30;99.90;;;;;;5107113;27;20479;-83
2021/12/21 12:47:06;;;;;;;37.38;20.65;;;3.40;99.90;;;;;;5123278;27;20035;-84
2021/12/21 12:49:34;;;;;;;37.15;20.92;;;3.60;99.90;;;;;;5123293;27;20047;-84
2021/12/21 12:52:04;;;;;;;39.58;21.65;;;;;;;;;;5123438;27;20043;-84
2021/12/21 12:54:30;;;;;;;42.20;23.23;;;;;;;;;;5114649;27;20043;-84
2021/12/21 12:56:56;;;;;;;47.90;25.52;;;;;;;;;;5107292;27;20062;-84
2021/12/21 12:59:22;;;;;;;48.13;26.98;;;;;;;;;;5100417;28;20051;-84
2021/12/21 13:01:49;;;;;;;44.08;29.80;;;;;;;;;;5110610;28;20461;-84
2021/12/21 13:04:17;;;;;;;49.15;31.77;;;3.50;99.90;;;;;;5096169;28;20539;-84
2021/12/21 13:06:46;;;;;;;44.10;28.65;;;3.50;99.90;;;;;;5078381;28;20477;-84
2021/12/21 13:09:15;;;;;;;45.95;26.90;;;3.50;99.90;;;;;;5078174;28;20056;-84
2021/12/21 13:11:41;;;;;;;47.95;28.70;;;;;;;;;;5078333;28;20055;-84
2021/12/21 13:14:12;;;;;;;47.17;30.63;;;3.50;99.90;;;;;;5095338;28;20454;-84
2021/12/21 13:16:40;;;;;;;40.95;27.88;;;3.60;99.90;;;;;;5078052;28;20052;-84
2021/12/21 13:19:14;;;;;;;43.00;28.13;;;3.70;99.90;;;;;;5078603;28;20048;-83
2021/12/21 13:21:51;;;;;;;49.67;30.33;;;3.80;99.90;;;;;;5078351;28;20127;-84
2021/12/21 13:24:20;;;;;;;43.40;29.33;;;3.70;99.90;;;;;;5094896;28;20044;-84
2021/12/21 13:26:55;;;;;;;48.40;30.85;;;3.80;99.90;;;;;;5078485;28;20048;-84
2021/12/21 13:29:32;;;;;;;48.15;29.35;;;3.80;99.90;;;;;;5095098;28;20071;-84
2021/12/21 13:32:04;;;;;;;43.95;28.10;;;3.80;99.90;;;;;;5078366;28;20059;-84
2021/12/21 13:34:31;;;;;;;34.58;21.50;;;;;;;;;;5077549;28;20044;-83
2021/12/21 13:37:03;;;;;;;25.60;15.75;;;3.90;99.90;;;;;;5094809;28;20603;-83
2021/12/21 13:39:35;;;;;;;29.13;17.98;;;3.90;99.90;;;;;;5078228;28;20048;-83
2021/12/21 13:42:04;;;;;;;36.92;18.23;;;3.90;99.90;;;;;;5077839;28;20066;-84
2021/12/21 13:44:33;;;;;;;35.17;18.77;;;3.90;99.90;;;;;;5094040;28;20079;-84
2021/12/21 13:47:02;;;;;;;31.00;17.85;;;3.90;99.90;;;;;;5097793;28;20066;-84
2021/12/21 13:49:28;;;;;;;25.60;14.55;;;;;;;;;;5097812;28;20502;-84
2021/12/21 13:51:59;;;;;;;23.30;13.10;;;3.90;99.90;;;;;;5097619;28;20105;-84
2021/12/21 13:54:26;;;;;;;28.27;15.80;;;3.90;99.90;;;;;;5097743;28;20051;-84
2021/12/21 13:56:53;;;;;;;27.85;15.30;;;;;;;;;;5097502;28;20059;-83
2021/12/21 13:59:21;;;;;;;32.55;16.85;;;3.90;99.90;;;;;;5108719;28;20095;-84
2021/12/21 14:01:53;;;;;;;30.52;17.92;;;3.80;99.90;;;;;;5096472;28;20401;-83
2021/12/21 14:04:27;;;;;;;26.48;17.42;;;3.80;99.90;;;;;;5097711;28;20496;-84
2021/12/21 14:06:53;;;;;;;37.35;19.55;;;3.80;99.90;;;;;;5097348;28;20043;-84
2021/12/21 14:09:21;;;;;;;32.83;20.50;;;3.80;99.90;;;;;;5113884;28;20081;-83
2021/12/21 14:11:54;;;;;;;33.92;22.25;;;3.80;99.90;;;;;;5097658;28;20104;-83
2021/12/21 14:14:20;;;;;;;39.88;23.73;;;;;;;;;;5114318;28;20560;-84
2021/12/21 14:16:48;;;;;;;38.50;23.88;;;3.60;99.90;;;;;;5096997;28;20499;-83
2021/12/21 14:19:23;;;;;;;42.58;23.48;;;3.70;99.90;;;;;;5110962;28;20503;-84
2021/12/21 14:21:55;;;;;;;35.67;23.83;;;3.60;99.90;;;;;;5095996;28;20043;-84
2021/12/21 14:24:26;;;;;;;42.58;24.73;;;3.50;99.90;;;;;;5076462;28;20070;-84
2021/12/21 14:26:57;;;;;;;40.58;24.55;;;3.60;99.90;;;;;;5075515;28;20120;-84
2021/12/21 14:29:25;;;;;;;43.00;24.33;;;3.50;99.90;;;;;;5097244;28;20044;-84
2021/12/21 14:34:36;;;;;;;33.70;23.63;;;3.40;99.90;;;;;;5117564;28;20035;-84